Main page
METAR-TAF:

METAR-TAF

Airports :

Warsaw, Poland

Warsaw Chopin Airport

latitude: 52-10N, longitude: 020-58E, elevation: 106 m

Current weather observation

The report was made 15 minutes ago, at 12:00 UTC
Wind 7 kt from the West/Southwest, varying between Southwest and West
Temperature 22°C
Humidity 57%
Pressure 1009 hPa
Visibility 10 km or more
Scattered clouds at a height of 4000 ft, Cumulonimbus.

METAR: EPWA 261200Z 25007KT 220V280 9999 SCT040CB 22/13 Q1009 TEMPO 3000 SHRA

Time: 14:15 (12:15 UTC)


TAF: missing

Weather observations and forecasts of more than 4000 airports (METAR and TAF reports).

The available stations are represented by yellow and red dots on the map.

Hover mouse over dot to see the name of the station.

Then click to see weather observations and forecasts.

To change the map : click on the green buttons with a black cross to zoom in, on the green button with a dash to zoom out, or on the green arrows for adjacent maps.


METAR-TAF: